createdAt,value
2018-06-04T00:02:10.083Z,75
2018-06-04T00:07:39.157Z,75
2018-06-04T00:13:09.559Z,75
2018-06-04T00:18:38.609Z,75
2018-06-04T00:24:07.380Z,75
2018-06-04T00:29:37.477Z,75
2018-06-04T00:35:07.515Z,75
2018-06-04T00:40:37.524Z,75
2018-06-04T00:46:07.646Z,75
2018-06-04T00:51:36.660Z,76
2018-06-04T00:57:06.681Z,76
2018-06-04T01:02:35.769Z,76
2018-06-04T01:08:05.751Z,76
2018-06-04T01:13:34.791Z,76
2018-06-04T01:19:03.833Z,76
2018-06-04T01:24:33.864Z,76
2018-06-04T01:30:03.895Z,77
2018-06-04T01:35:33.933Z,77
2018-06-04T01:41:03.001Z,77
2018-06-04T01:46:31.954Z,77
2018-06-04T01:52:00.927Z,77
2018-06-04T01:57:30.949Z,77
2018-06-04T02:02:59.897Z,77
2018-06-04T02:08:28.911Z,77
2018-06-04T02:13:58.916Z,77
2018-06-04T02:19:28.916Z,78
2018-06-04T02:24:58.899Z,78
2018-06-04T02:30:27.871Z,78
2018-06-04T02:35:56.887Z,78
2018-06-04T02:41:25.925Z,78
2018-06-04T02:46:55.911Z,78
2018-06-04T02:52:25.891Z,78
2018-06-04T02:57:54.855Z,78
2018-06-04T03:03:23.851Z,78
2018-06-04T03:08:52.883Z,78
2018-06-04T03:14:21.849Z,79
2018-06-04T03:19:51.774Z,79
2018-06-04T03:25:20.798Z,79
2018-06-04T03:30:50.805Z,79
2018-06-04T03:36:20.775Z,79
2018-06-04T03:41:50.794Z,79
2018-06-04T03:47:19.947Z,79
2018-06-04T03:52:49.727Z,79
2018-06-04T03:58:18.630Z,79
2018-06-04T04:03:47.604Z,79
2018-06-04T04:09:16.604Z,79
2018-06-04T04:14:46.665Z,79
2018-06-04T04:20:16.581Z,79
2018-06-04T04:25:46.645Z,79
2018-06-04T04:31:16.544Z,79
2018-06-04T04:36:46.641Z,80
2018-06-04T04:42:15.524Z,80
2018-06-04T04:47:44.535Z,80
2018-06-04T04:53:14.534Z,80
2018-06-04T04:58:44.506Z,80
2018-06-04T05:04:13.581Z,80
2018-06-04T05:09:42.546Z,80
2018-06-04T05:15:11.506Z,80
2018-06-04T05:20:40.669Z,80
2018-06-04T05:26:09.460Z,80
2018-06-04T05:31:38.454Z,80
2018-06-04T05:37:08.490Z,80
2018-06-04T05:42:38.486Z,80
2018-06-04T05:48:07.498Z,81
2018-06-04T05:53:37.478Z,81
2018-06-04T05:59:06.452Z,81
2018-06-04T06:04:35.496Z,81
2018-06-04T06:10:05.497Z,81
2018-06-04T06:15:35.594Z,81
2018-06-04T06:21:05.516Z,81
2018-06-04T06:26:34.578Z,81
2018-06-04T06:32:03.591Z,81
2018-06-04T06:37:32.634Z,81
2018-06-04T06:43:02.546Z,82
2018-06-04T06:48:31.604Z,82
2018-06-04T06:54:01.625Z,82
2018-06-04T06:59:30.736Z,82
2018-06-04T07:05:00.633Z,82
2018-06-04T07:10:30.645Z,82
2018-06-04T07:16:00.688Z,82
2018-06-04T07:21:30.756Z,82
2018-06-04T07:26:59.774Z,83
2018-06-04T07:32:28.750Z,83
2018-06-04T07:37:57.799Z,82
2018-06-04T07:43:27.835Z,82
2018-06-04T07:48:58.825Z,82
2018-06-04T07:54:27.028Z,83
2018-06-04T07:59:56.038Z,83
2018-06-04T08:05:26.147Z,83
2018-06-04T08:10:55.294Z,83
2018-06-04T08:16:24.375Z,83
2018-06-04T08:21:53.488Z,82
2018-06-04T08:27:22.772Z,82
2018-06-04T08:32:52.757Z,82
2018-06-04T08:38:22.005Z,82
2018-06-04T08:38:22.728Z,82
2018-06-04T08:43:52.100Z,81
2018-06-04T08:49:22.395Z,81
2018-06-04T08:54:51.526Z,81
2018-06-04T09:00:20.633Z,80
2018-06-04T09:00:21.266Z,80
2018-06-04T09:05:49.791Z,80
2018-06-04T09:11:20.024Z,80
2018-06-04T09:16:49.259Z,80
2018-06-04T09:22:18.456Z,79
2018-06-04T09:27:48.675Z,79
2018-06-04T09:33:19.001Z,78
2018-06-04T09:38:48.215Z,78
2018-06-04T09:44:18.491Z,78
2018-06-04T09:49:48.877Z,78
2018-06-04T09:55:18.343Z,77
2018-06-04T10:00:47.480Z,77
2018-06-04T10:06:17.132Z,76
2018-06-04T10:11:47.347Z,76
2018-06-04T10:17:17.953Z,76
2018-06-04T10:22:47.828Z,75
2018-06-04T10:28:17.925Z,75
2018-06-04T10:33:46.910Z,75
2018-06-04T10:39:15.952Z,75
2018-06-04T10:44:45.265Z,75
2018-06-04T10:50:16.003Z,75
2018-06-04T10:55:46.037Z,74
2018-06-04T11:01:16.421Z,74
2018-06-04T11:06:45.773Z,74
2018-06-04T11:12:15.344Z,73
2018-06-04T11:17:44.582Z,73
2018-06-04T11:23:14.350Z,73
2018-06-04T11:28:44.669Z,72
2018-06-04T11:34:13.765Z,72
2018-06-04T11:39:44.193Z,72
2018-06-04T11:45:14.654Z,72
2018-06-04T11:50:43.947Z,72
2018-06-04T11:56:13.356Z,72
2018-06-04T12:01:42.712Z,71
2018-06-04T12:07:13.113Z,71
2018-06-04T12:12:42.486Z,70
2018-06-04T12:18:13.090Z,70
2018-06-04T12:23:42.360Z,70
2018-06-04T12:29:11.834Z,70
2018-06-04T12:34:42.251Z,71
2018-06-04T12:40:11.668Z,70
2018-06-04T12:45:41.192Z,70
2018-06-04T12:51:11.408Z,70
2018-06-04T12:56:40.727Z,70
2018-06-04T13:02:10.171Z,70
2018-06-04T13:07:39.567Z,70
2018-06-04T13:13:09.816Z,70
2018-06-04T13:18:39.839Z,70
2018-06-04T13:24:09.542Z,70
2018-06-04T13:29:38.958Z,70
2018-06-04T13:35:08.536Z,70
2018-06-04T13:40:37.569Z,70
2018-06-04T13:46:06.961Z,69
2018-06-04T13:51:37.327Z,69
2018-06-04T13:57:06.620Z,69
2018-06-04T14:02:35.998Z,69
2018-06-04T14:08:05.449Z,68
2018-06-04T14:13:34.888Z,68
2018-06-04T14:19:04.526Z,68
2018-06-04T14:24:33.606Z,69
2018-06-04T14:30:03.985Z,69
2018-06-04T14:30:04.527Z,69
2018-06-04T14:35:34.389Z,69
2018-06-04T14:35:35.312Z,69
2018-06-04T14:41:03.658Z,69
2018-06-04T14:46:32.997Z,70
2018-06-04T14:52:02.277Z,70
2018-06-04T14:57:31.973Z,70
2018-06-04T15:03:01.053Z,70
2018-06-04T15:08:31.092Z,70
2018-06-04T15:14:01.361Z,70
2018-06-04T15:19:31.635Z,70
2018-06-04T15:25:01.991Z,70
2018-06-04T15:30:31.179Z,70
2018-06-04T15:36:01.453Z,71
2018-06-04T15:41:30.641Z,71
2018-06-04T15:46:59.980Z,70
2018-06-04T15:47:00.684Z,70
2018-06-04T15:52:29.187Z,70
2018-06-04T15:57:59.434Z,70
2018-06-04T16:03:29.898Z,70
2018-06-04T16:09:00.014Z,70
2018-06-04T16:14:29.249Z,71
2018-06-04T16:19:59.516Z,71
2018-06-04T16:25:28.747Z,70
2018-06-04T16:30:58.986Z,70
2018-06-04T16:36:29.236Z,70
2018-06-04T16:41:59.533Z,70
2018-06-04T16:47:29.780Z,70
2018-06-04T16:52:58.941Z,70
2018-06-04T16:58:29.157Z,70
2018-06-04T17:03:59.359Z,70
2018-06-04T17:09:29.575Z,70
2018-06-04T17:14:58.954Z,70
2018-06-04T17:20:28.128Z,70
2018-06-04T17:25:57.226Z,71
2018-06-04T17:31:26.372Z,71
2018-06-04T17:36:55.584Z,71
2018-06-04T17:42:25.810Z,71
2018-06-04T17:47:55.967Z,72
2018-06-04T17:53:26.093Z,72
2018-06-04T17:58:55.262Z,71
2018-06-04T18:04:25.405Z,72
2018-06-04T18:09:55.570Z,72
2018-06-04T18:15:25.708Z,72
2018-06-04T18:20:54.878Z,72
2018-06-04T18:26:25.001Z,72
2018-06-04T18:31:54.125Z,72
2018-06-04T18:42:54.306Z,72
2018-06-04T18:48:24.395Z,72
2018-06-04T18:53:54.434Z,73
2018-06-04T18:59:23.792Z,73
2018-06-04T19:04:53.587Z,73
2018-06-04T19:10:23.516Z,73
2018-06-04T19:21:21.819Z,73
2018-06-04T19:21:22.719Z,73
2018-06-04T19:26:50.531Z,73
2018-06-04T19:32:19.509Z,73
2018-06-04T19:37:48.425Z,73
2018-06-04T19:37:49.098Z,73
2018-06-04T19:43:17.359Z,73
2018-06-04T19:48:47.340Z,73
2018-06-04T19:54:16.433Z,73
2018-06-04T19:59:45.181Z,73
2018-06-04T20:05:14.094Z,73
2018-06-04T20:10:44.019Z,73
2018-06-04T20:16:12.935Z,74
2018-06-04T20:21:42.799Z,74
2018-06-04T20:27:11.732Z,74
2018-06-04T20:43:38.387Z,74
2018-06-04T20:49:07.301Z,74
2018-06-04T20:54:36.184Z,74
2018-06-04T21:00:05.961Z,74
2018-06-04T21:05:36.112Z,74
2018-06-04T21:11:05.697Z,75
2018-06-04T21:16:34.651Z,75
2018-06-04T21:16:34.937Z,75
2018-06-04T21:22:03.386Z,75
2018-06-04T21:27:33.192Z,75
2018-06-04T21:33:02.051Z,75
2018-06-04T21:38:32.182Z,75
2018-06-04T21:44:00.651Z,75
2018-06-04T21:49:29.519Z,75
2018-06-04T21:54:59.292Z,75
2018-06-04T22:00:29.084Z,75
2018-06-04T22:05:58.881Z,75
2018-06-04T22:11:28.726Z,76
2018-06-04T22:16:58.649Z,76
2018-06-04T22:22:27.313Z,76
2018-06-04T22:27:56.120Z,76
2018-06-04T22:33:25.006Z,76
2018-06-04T22:38:54.712Z,76
2018-06-04T22:44:23.534Z,76
2018-06-04T22:49:52.718Z,76
2018-06-04T22:55:21.163Z,76
2018-06-04T23:00:51.035Z,76
2018-06-04T23:06:21.154Z,76
2018-06-04T23:11:50.632Z,76
2018-06-04T23:17:20.386Z,76
2018-06-04T23:22:49.236Z,76
2018-06-04T23:28:19.019Z,76
2018-06-04T23:33:47.770Z,76
2018-06-04T23:39:17.741Z,76
2018-06-04T23:44:47.307Z,77
2018-06-04T23:50:16.232Z,77
2018-06-04T23:55:45.029Z,77
